sensor_id;sensor_type;location;lat;lon;timestamp;temperature;humidity
45807;DHT22;31507;51.494;7.518;2022-11-15T00:00:32;9.40;99.90
45807;DHT22;31507;51.494;7.518;2022-11-15T00:02:58;9.50;99.90
45807;DHT22;31507;51.494;7.518;2022-11-15T00:05:24;9.50;99.90
45807;DHT22;31507;51.494;7.518;2022-11-15T00:07:50;9.50;99.90
45807;DHT22;31507;51.494;7.518;2022-11-15T00:10:15;9.60;99.90
45807;DHT22;31507;51.494;7.518;2022-11-15T00:12:41;9.60;99.90
45807;DHT22;31507;51.494;7.518;2022-11-15T00:15:07;9.70;99.90
45807;DHT22;31507;51.494;7.518;2022-11-15T00:17:33;9.80;99.90
45807;DHT22;31507;51.494;7.518;2022-11-15T00:19:58;9.80;99.90
45807;DHT22;31507;51.494;7.518;2022-11-15T00:22:24;9.90;99.90
45807;DHT22;31507;51.494;7.518;2022-11-15T00:24:49;9.90;99.90
45807;DHT22;31507;51.494;7.518;2022-11-15T00:27:15;10.00;99.90
45807;DHT22;31507;51.494;7.518;2022-11-15T00:29:41;10.00;99.90
45807;DHT22;31507;51.494;7.518;2022-11-15T00:32:11;10.10;99.90
45807;DHT22;31507;51.494;7.518;2022-11-15T00:34:37;10.10;99.90
45807;DHT22;31507;51.494;7.518;2022-11-15T00:37:03;10.20;99.90
45807;DHT22;31507;51.494;7.518;2022-11-15T00:39:29;10.30;99.90
45807;DHT22;31507;51.494;7.518;2022-11-15T00:41:54;10.30;99.90
45807;DHT22;31507;51.494;7.518;2022-11-15T00:44:20;10.40;99.90
45807;DHT22;31507;51.494;7.518;2022-11-15T00:46:46;10.50;99.90
45807;DHT22;31507;51.494;7.518;2022-11-15T00:49:11;10.60;99.90
45807;DHT22;31507;51.494;7.518;2022-11-15T00:51:37;10.60;99.90
45807;DHT22;31507;51.494;7.518;2022-11-15T00:54:03;10.70;99.90
45807;DHT22;31507;51.494;7.518;2022-11-15T00:56:28;10.80;99.90
45807;DHT22;31507;51.494;7.518;2022-11-15T00:58:54;10.90;99.90
45807;DHT22;31507;51.494;7.518;2022-11-15T01:01:20;10.90;99.90
45807;DHT22;31507;51.494;7.518;2022-11-15T01:03:45;11.00;99.90
45807;DHT22;31507;51.494;7.518;2022-11-15T01:06:11;11.00;99.90
45807;DHT22;31507;51.494;7.518;2022-11-15T01:08:38;11.00;99.90
45807;DHT22;31507;51.494;7.518;2022-11-15T01:11:07;11.10;99.90
45807;DHT22;31507;51.494;7.518;2022-11-15T01:13:34;11.10;99.90
45807;DHT22;31507;51.494;7.518;2022-11-15T01:16:06;11.10;99.90
45807;DHT22;31507;51.494;7.518;2022-11-15T01:18:32;11.10;99.90
45807;DHT22;31507;51.494;7.518;2022-11-15T01:20:57;11.20;99.90
45807;DHT22;31507;51.494;7.518;2022-11-15T01:23:23;11.20;99.90
45807;DHT22;31507;51.494;7.518;2022-11-15T01:25:48;11.20;99.90
45807;DHT22;31507;51.494;7.518;2022-11-15T01:28:14;11.20;99.90
45807;DHT22;31507;51.494;7.518;2022-11-15T01:30:40;11.30;99.90
45807;DHT22;31507;51.494;7.518;2022-11-15T01:33:05;11.30;99.90
45807;DHT22;31507;51.494;7.518;2022-11-15T01:35:31;11.40;99.90
45807;DHT22;31507;51.494;7.518;2022-11-15T01:37:57;11.50;99.90
45807;DHT22;31507;51.494;7.518;2022-11-15T01:40:22;11.50;99.90
45807;DHT22;31507;51.494;7.518;2022-11-15T01:42:48;11.60;99.90
45807;DHT22;31507;51.494;7.518;2022-11-15T01:45:15;11.70;99.90
45807;DHT22;31507;51.494;7.518;2022-11-15T01:47:44;11.70;99.90
45807;DHT22;31507;51.494;7.518;2022-11-15T01:50:17;11.70;99.90
45807;DHT22;31507;51.494;7.518;2022-11-15T01:52:44;11.80;99.90
45807;DHT22;31507;51.494;7.518;2022-11-15T01:55:25;11.80;99.90
45807;DHT22;31507;51.494;7.518;2022-11-15T01:57:56;11.80;99.90
45807;DHT22;31507;51.494;7.518;2022-11-15T02:00:23;11.80;99.90
45807;DHT22;31507;51.494;7.518;2022-11-15T02:02:49;11.80;99.90
45807;DHT22;31507;51.494;7.518;2022-11-15T02:05:15;11.80;99.90
45807;DHT22;31507;51.494;7.518;2022-11-15T02:07:40;11.80;99.90
45807;DHT22;31507;51.494;7.518;2022-11-15T02:10:12;11.80;99.90
45807;DHT22;31507;51.494;7.518;2022-11-15T02:12:38;11.80;99.90
45807;DHT22;31507;51.494;7.518;2022-11-15T02:15:05;11.70;99.90
45807;DHT22;31507;51.494;7.518;2022-11-15T02:20:46;11.70;99.90
45807;DHT22;31507;51.494;7.518;2022-11-15T02:23:29;11.70;99.90
45807;DHT22;31507;51.494;7.518;2022-11-15T02:29:26;11.70;99.90
45807;DHT22;31507;51.494;7.518;2022-11-15T02:32:32;11.70;99.90
45807;DHT22;31507;51.494;7.518;2022-11-15T02:34:54;11.70;99.90
45807;DHT22;31507;51.494;7.518;2022-11-15T02:40:10;11.60;99.90
45807;DHT22;31507;51.494;7.518;2022-11-15T02:42:41;11.70;99.90
45807;DHT22;31507;51.494;7.518;2022-11-15T02:45:30;11.60;99.90
45807;DHT22;31507;51.494;7.518;2022-11-15T02:47:57;11.60;99.90
45807;DHT22;31507;51.494;7.518;2022-11-15T02:50:27;11.60;99.90
45807;DHT22;31507;51.494;7.518;2022-11-15T02:52:54;11.50;99.90
45807;DHT22;31507;51.494;7.518;2022-11-15T02:55:32;11.50;99.90
45807;DHT22;31507;51.494;7.518;2022-11-15T03:03:46;11.20;99.90
45807;DHT22;31507;51.494;7.518;2022-11-15T03:11:35;11.20;99.90
45807;DHT22;31507;51.494;7.518;2022-11-15T03:16:40;11.10;99.90
45807;DHT22;31507;51.494;7.518;2022-11-15T03:19:22;11.20;99.90
45807;DHT22;31507;51.494;7.518;2022-11-15T03:21:51;11.10;99.90
45807;DHT22;31507;51.494;7.518;2022-11-15T03:24:19;11.10;99.90
45807;DHT22;31507;51.494;7.518;2022-11-15T03:26:48;11.20;99.90
45807;DHT22;31507;51.494;7.518;2022-11-15T03:29:17;11.20;99.90
45807;DHT22;31507;51.494;7.518;2022-11-15T03:31:47;11.30;99.90
45807;DHT22;31507;51.494;7.518;2022-11-15T03:34:44;11.30;99.90
45807;DHT22;31507;51.494;7.518;2022-11-15T03:37:14;11.40;99.90
45807;DHT22;31507;51.494;7.518;2022-11-15T03:39:41;11.50;99.90
45807;DHT22;31507;51.494;7.518;2022-11-15T03:47:35;11.60;99.90
45807;DHT22;31507;51.494;7.518;2022-11-15T03:50:07;11.60;99.90
45807;DHT22;31507;51.494;7.518;2022-11-15T03:52:34;11.70;99.90
45807;DHT22;31507;51.494;7.518;2022-11-15T03:55:01;11.70;99.90
45807;DHT22;31507;51.494;7.518;2022-11-15T03:57:29;11.80;99.90
45807;DHT22;31507;51.494;7.518;2022-11-15T03:59:54;11.80;99.90
45807;DHT22;31507;51.494;7.518;2022-11-15T04:02:20;11.80;99.90
45807;DHT22;31507;51.494;7.518;2022-11-15T04:04:45;11.90;99.90
45807;DHT22;31507;51.494;7.518;2022-11-15T04:07:11;11.90;99.90
45807;DHT22;31507;51.494;7.518;2022-11-15T04:09:37;11.90;99.90
45807;DHT22;31507;51.494;7.518;2022-11-15T04:12:21;11.90;99.90
45807;DHT22;31507;51.494;7.518;2022-11-15T04:15:01;11.90;99.90
45807;DHT22;31507;51.494;7.518;2022-11-15T04:17:49;11.90;99.90
45807;DHT22;31507;51.494;7.518;2022-11-15T04:20:23;11.90;99.90
45807;DHT22;31507;51.494;7.518;2022-11-15T04:23:19;11.90;99.90
45807;DHT22;31507;51.494;7.518;2022-11-15T04:26:19;11.90;99.90
45807;DHT22;31507;51.494;7.518;2022-11-15T04:28:45;11.90;99.90
45807;DHT22;31507;51.494;7.518;2022-11-15T04:31:29;11.90;99.90
45807;DHT22;31507;51.494;7.518;2022-11-15T04:33:55;11.90;99.90
45807;DHT22;31507;51.494;7.518;2022-11-15T04:36:21;11.90;99.90
45807;DHT22;31507;51.494;7.518;2022-11-15T04:39:05;11.90;99.90
45807;DHT22;31507;51.494;7.518;2022-11-15T04:41:32;11.90;99.90
45807;DHT22;31507;51.494;7.518;2022-11-15T04:43:58;12.00;99.90
45807;DHT22;31507;51.494;7.518;2022-11-15T04:46:24;12.00;99.90
45807;DHT22;31507;51.494;7.518;2022-11-15T04:48:50;12.00;99.90
45807;DHT22;31507;51.494;7.518;2022-11-15T04:51:16;12.00;99.90
45807;DHT22;31507;51.494;7.518;2022-11-15T04:53:42;12.10;99.90
45807;DHT22;31507;51.494;7.518;2022-11-15T04:56:07;12.10;99.90
45807;DHT22;31507;51.494;7.518;2022-11-15T04:58:33;12.10;99.90
45807;DHT22;31507;51.494;7.518;2022-11-15T05:01:10;12.20;99.90
45807;DHT22;31507;51.494;7.518;2022-11-15T05:03:36;12.20;99.90
45807;DHT22;31507;51.494;7.518;2022-11-15T05:06:20;12.20;99.90
45807;DHT22;31507;51.494;7.518;2022-11-15T05:08:46;12.20;99.90
45807;DHT22;31507;51.494;7.518;2022-11-15T05:11:12;12.30;99.90
45807;DHT22;31507;51.494;7.518;2022-11-15T05:13:37;12.30;99.90
45807;DHT22;31507;51.494;7.518;2022-11-15T05:16:03;12.20;99.90
45807;DHT22;31507;51.494;7.518;2022-11-15T05:18:29;12.30;99.90
45807;DHT22;31507;51.494;7.518;2022-11-15T05:20:54;12.20;99.90
45807;DHT22;31507;51.494;7.518;2022-11-15T05:23:20;12.20;99.90
45807;DHT22;31507;51.494;7.518;2022-11-15T05:25:46;12.20;99.90
45807;DHT22;31507;51.494;7.518;2022-11-15T05:28:11;12.20;99.90
45807;DHT22;31507;51.494;7.518;2022-11-15T05:30:37;12.10;99.90
45807;DHT22;31507;51.494;7.518;2022-11-15T05:33:03;12.10;99.90
45807;DHT22;31507;51.494;7.518;2022-11-15T05:35:48;12.10;99.90
45807;DHT22;31507;51.494;7.518;2022-11-15T05:38:15;12.10;99.90
45807;DHT22;31507;51.494;7.518;2022-11-15T05:40:41;12.00;99.90
45807;DHT22;31507;51.494;7.518;2022-11-15T05:43:07;12.10;99.90
45807;DHT22;31507;51.494;7.518;2022-11-15T05:45:33;12.10;99.90
45807;DHT22;31507;51.494;7.518;2022-11-15T05:48:00;12.10;99.90
45807;DHT22;31507;51.494;7.518;2022-11-15T05:50:30;12.10;99.90
45807;DHT22;31507;51.494;7.518;2022-11-15T05:52:56;12.10;99.90
45807;DHT22;31507;51.494;7.518;2022-11-15T05:55:22;12.10;99.90
45807;DHT22;31507;51.494;7.518;2022-11-15T05:57:47;12.00;99.90
45807;DHT22;31507;51.494;7.518;2022-11-15T06:00:13;12.00;99.90
45807;DHT22;31507;51.494;7.518;2022-11-15T06:02:39;11.90;99.90
45807;DHT22;31507;51.494;7.518;2022-11-15T06:05:05;11.90;99.90
45807;DHT22;31507;51.494;7.518;2022-11-15T06:07:31;11.80;99.90
45807;DHT22;31507;51.494;7.518;2022-11-15T06:09:56;11.80;99.90
45807;DHT22;31507;51.494;7.518;2022-11-15T06:12:22;11.80;99.90
45807;DHT22;31507;51.494;7.518;2022-11-15T06:14:47;11.80;99.90
45807;DHT22;31507;51.494;7.518;2022-11-15T06:17:13;11.80;99.90
45807;DHT22;31507;51.494;7.518;2022-11-15T06:19:39;11.80;99.90
45807;DHT22;31507;51.494;7.518;2022-11-15T06:22:04;11.80;99.90
45807;DHT22;31507;51.494;7.518;2022-11-15T06:24:30;11.80;99.90
45807;DHT22;31507;51.494;7.518;2022-11-15T06:26:56;11.80;99.90
45807;DHT22;31507;51.494;7.518;2022-11-15T06:29:22;11.80;99.90
45807;DHT22;31507;51.494;7.518;2022-11-15T06:31:48;11.80;99.90
45807;DHT22;31507;51.494;7.518;2022-11-15T06:34:14;11.80;99.90
45807;DHT22;31507;51.494;7.518;2022-11-15T06:36:40;11.80;99.90
45807;DHT22;31507;51.494;7.518;2022-11-15T06:39:06;11.80;99.90
45807;DHT22;31507;51.494;7.518;2022-11-15T06:41:34;11.90;99.90
45807;DHT22;31507;51.494;7.518;2022-11-15T06:44:00;11.90;99.90
45807;DHT22;31507;51.494;7.518;2022-11-15T06:46:26;11.90;99.90
45807;DHT22;31507;51.494;7.518;2022-11-15T06:48:52;11.90;99.90
45807;DHT22;31507;51.494;7.518;2022-11-15T06:51:18;12.00;99.90
45807;DHT22;31507;51.494;7.518;2022-11-15T06:53:44;11.90;99.90
45807;DHT22;31507;51.494;7.518;2022-11-15T06:56:09;12.00;99.90
45807;DHT22;31507;51.494;7.518;2022-11-15T06:58:35;12.00;99.90
45807;DHT22;31507;51.494;7.518;2022-11-15T07:01:08;12.00;99.90
45807;DHT22;31507;51.494;7.518;2022-11-15T07:03:35;12.10;99.90
45807;DHT22;31507;51.494;7.518;2022-11-15T07:06:02;12.10;99.90
45807;DHT22;31507;51.494;7.518;2022-11-15T07:08:28;12.10;99.90
45807;DHT22;31507;51.494;7.518;2022-11-15T07:10:57;12.10;99.90
45807;DHT22;31507;51.494;7.518;2022-11-15T07:13:26;12.20;99.90
45807;DHT22;31507;51.494;7.518;2022-11-15T07:15:52;12.20;99.90
45807;DHT22;31507;51.494;7.518;2022-11-15T07:18:18;12.20;99.90
45807;DHT22;31507;51.494;7.518;2022-11-15T07:20:44;12.20;99.90
45807;DHT22;31507;51.494;7.518;2022-11-15T07:23:09;12.20;99.90
45807;DHT22;31507;51.494;7.518;2022-11-15T07:25:35;12.30;99.90
45807;DHT22;31507;51.494;7.518;2022-11-15T07:28:01;12.20;99.90
45807;DHT22;31507;51.494;7.518;2022-11-15T07:30:27;12.30;99.90
45807;DHT22;31507;51.494;7.518;2022-11-15T07:32:56;12.20;99.90
45807;DHT22;31507;51.494;7.518;2022-11-15T07:35:22;12.20;99.90
45807;DHT22;31507;51.494;7.518;2022-11-15T07:37:59;12.20;99.90
45807;DHT22;31507;51.494;7.518;2022-11-15T07:40:27;12.20;99.90
45807;DHT22;31507;51.494;7.518;2022-11-15T07:42:58;12.10;99.90
45807;DHT22;31507;51.494;7.518;2022-11-15T07:45:24;12.10;99.90
45807;DHT22;31507;51.494;7.518;2022-11-15T07:47:53;12.10;99.90
45807;DHT22;31507;51.494;7.518;2022-11-15T07:50:19;12.10;99.90
45807;DHT22;31507;51.494;7.518;2022-11-15T07:52:45;12.00;99.90
45807;DHT22;31507;51.494;7.518;2022-11-15T07:55:11;12.00;99.90
45807;DHT22;31507;51.494;7.518;2022-11-15T07:57:37;12.00;99.90
45807;DHT22;31507;51.494;7.518;2022-11-15T08:00:04;12.00;99.90
45807;DHT22;31507;51.494;7.518;2022-11-15T08:02:30;12.00;99.90
45807;DHT22;31507;51.494;7.518;2022-11-15T08:04:56;12.00;99.90
45807;DHT22;31507;51.494;7.518;2022-11-15T08:07:21;12.00;99.90
45807;DHT22;31507;51.494;7.518;2022-11-15T08:09:47;11.90;99.90
45807;DHT22;31507;51.494;7.518;2022-11-15T08:12:14;11.90;99.90
45807;DHT22;31507;51.494;7.518;2022-11-15T08:14:40;12.00;99.90
45807;DHT22;31507;51.494;7.518;2022-11-15T08:17:05;12.00;99.90
45807;DHT22;31507;51.494;7.518;2022-11-15T08:19:31;12.10;99.90
45807;DHT22;31507;51.494;7.518;2022-11-15T08:21:56;12.10;99.90
45807;DHT22;31507;51.494;7.518;2022-11-15T08:24:22;12.20;99.90
45807;DHT22;31507;51.494;7.518;2022-11-15T08:26:48;12.20;99.90
45807;DHT22;31507;51.494;7.518;2022-11-15T08:29:13;12.30;99.90
45807;DHT22;31507;51.494;7.518;2022-11-15T08:31:39;12.40;99.90
45807;DHT22;31507;51.494;7.518;2022-11-15T08:34:05;12.40;99.90
45807;DHT22;31507;51.494;7.518;2022-11-15T08:36:31;12.50;99.90
45807;DHT22;31507;51.494;7.518;2022-11-15T08:38:57;12.60;99.90
45807;DHT22;31507;51.494;7.518;2022-11-15T08:41:35;12.70;99.90
45807;DHT22;31507;51.494;7.518;2022-11-15T08:44:02;12.80;99.90
45807;DHT22;31507;51.494;7.518;2022-11-15T08:46:27;12.90;99.90
45807;DHT22;31507;51.494;7.518;2022-11-15T08:48:53;13.00;99.90
45807;DHT22;31507;51.494;7.518;2022-11-15T08:51:19;13.00;99.90
45807;DHT22;31507;51.494;7.518;2022-11-15T08:53:45;13.10;99.90
45807;DHT22;31507;51.494;7.518;2022-11-15T08:56:13;13.20;99.90
45807;DHT22;31507;51.494;7.518;2022-11-15T08:58:39;13.40;99.90
45807;DHT22;31507;51.494;7.518;2022-11-15T09:01:06;13.60;99.90
45807;DHT22;31507;51.494;7.518;2022-11-15T09:03:32;13.70;99.90
45807;DHT22;31507;51.494;7.518;2022-11-15T09:05:59;13.80;99.90
45807;DHT22;31507;51.494;7.518;2022-11-15T09:08:28;13.70;99.90
45807;DHT22;31507;51.494;7.518;2022-11-15T09:10:54;13.60;99.90
45807;DHT22;31507;51.494;7.518;2022-11-15T09:13:20;13.60;99.90
45807;DHT22;31507;51.494;7.518;2022-11-15T09:15:45;13.60;99.90
45807;DHT22;31507;51.494;7.518;2022-11-15T09:18:14;13.60;99.90
45807;DHT22;31507;51.494;7.518;2022-11-15T09:20:39;13.80;99.90
45807;DHT22;31507;51.494;7.518;2022-11-15T09:23:05;13.90;99.90
45807;DHT22;31507;51.494;7.518;2022-11-15T09:25:31;14.00;99.90
45807;DHT22;31507;51.494;7.518;2022-11-15T09:27:58;14.00;99.90
45807;DHT22;31507;51.494;7.518;2022-11-15T09:30:24;13.90;99.90
45807;DHT22;31507;51.494;7.518;2022-11-15T09:32:50;13.80;99.90
45807;DHT22;31507;51.494;7.518;2022-11-15T09:35:16;13.80;99.90
45807;DHT22;31507;51.494;7.518;2022-11-15T09:37:42;13.70;99.90
45807;DHT22;31507;51.494;7.518;2022-11-15T09:40:13;13.60;99.90
45807;DHT22;31507;51.494;7.518;2022-11-15T09:45:36;13.50;99.90
45807;DHT22;31507;51.494;7.518;2022-11-15T09:48:17;13.50;99.90
45807;DHT22;31507;51.494;7.518;2022-11-15T09:50:50;13.60;99.90
45807;DHT22;31507;51.494;7.518;2022-11-15T09:53:36;13.70;99.90
45807;DHT22;31507;51.494;7.518;2022-11-15T09:56:22;13.70;99.90
45807;DHT22;31507;51.494;7.518;2022-11-15T10:02:01;13.90;98.70
45807;DHT22;31507;51.494;7.518;2022-11-15T10:04:29;13.80;98.70
45807;DHT22;31507;51.494;7.518;2022-11-15T10:09:43;13.80;98.40
45807;DHT22;31507;51.494;7.518;2022-11-15T10:12:13;13.90;98.80
45807;DHT22;31507;51.494;7.518;2022-11-15T10:14:39;14.30;98.00
45807;DHT22;31507;51.494;7.518;2022-11-15T10:17:21;14.60;97.40
45807;DHT22;31507;51.494;7.518;2022-11-15T10:20:16;15.00;96.30
45807;DHT22;31507;51.494;7.518;2022-11-15T10:22:51;15.20;95.80
45807;DHT22;31507;51.494;7.518;2022-11-15T10:25:22;15.10;95.70
45807;DHT22;31507;51.494;7.518;2022-11-15T10:28:21;15.20;95.80
45807;DHT22;31507;51.494;7.518;2022-11-15T10:30:50;15.30;94.50
45807;DHT22;31507;51.494;7.518;2022-11-15T10:46:37;16.60;90.70
45807;DHT22;31507;51.494;7.518;2022-11-15T10:49:19;16.60;91.10
45807;DHT22;31507;51.494;7.518;2022-11-15T10:54:43;17.50;86.60
45807;DHT22;31507;51.494;7.518;2022-11-15T10:57:31;17.40;86.30
45807;DHT22;31507;51.494;7.518;2022-11-15T11:00:03;17.50;85.80
45807;DHT22;31507;51.494;7.518;2022-11-15T11:02:38;16.90;86.50
45807;DHT22;31507;51.494;7.518;2022-11-15T11:05:28;16.20;88.90
45807;DHT22;31507;51.494;7.518;2022-11-15T11:08:04;15.50;88.40
45807;DHT22;31507;51.494;7.518;2022-11-15T11:10:30;15.20;90.10
45807;DHT22;31507;51.494;7.518;2022-11-15T11:13:21;14.90;90.50
45807;DHT22;31507;51.494;7.518;2022-11-15T11:21:49;14.90;90.50
45807;DHT22;31507;51.494;7.518;2022-11-15T11:27:27;14.90;90.40
45807;DHT22;31507;51.494;7.518;2022-11-15T11:30:17;14.90;89.80
45807;DHT22;31507;51.494;7.518;2022-11-15T11:38:42;14.90;89.60
45807;DHT22;31507;51.494;7.518;2022-11-15T11:46:48;14.90;87.60
45807;DHT22;31507;51.494;7.518;2022-11-15T11:49:42;14.90;84.50
45807;DHT22;31507;51.494;7.518;2022-11-15T11:55:21;14.90;84.90
45807;DHT22;31507;51.494;7.518;2022-11-15T11:58:02;15.00;83.20
45807;DHT22;31507;51.494;7.518;2022-11-15T12:00:28;14.90;83.40
45807;DHT22;31507;51.494;7.518;2022-11-15T12:03:11;15.00;84.60
45807;DHT22;31507;51.494;7.518;2022-11-15T12:05:53;15.10;83.00
45807;DHT22;31507;51.494;7.518;2022-11-15T12:11:16;15.20;81.90
45807;DHT22;31507;51.494;7.518;2022-11-15T12:13:43;15.30;78.90
45807;DHT22;31507;51.494;7.518;2022-11-15T12:16:29;15.30;79.90
45807;DHT22;31507;51.494;7.518;2022-11-15T12:19:00;15.30;77.20
45807;DHT22;31507;51.494;7.518;2022-11-15T12:26:53;15.30;79.00
45807;DHT22;31507;51.494;7.518;2022-11-15T12:29:27;15.10;79.10
45807;DHT22;31507;51.494;7.518;2022-11-15T12:31:55;15.10;78.00
45807;DHT22;31507;51.494;7.518;2022-11-15T12:36:54;15.10;77.50
45807;DHT22;31507;51.494;7.518;2022-11-15T12:39:21;15.10;77.60
45807;DHT22;31507;51.494;7.518;2022-11-15T12:42:34;15.00;77.00
45807;DHT22;31507;51.494;7.518;2022-11-15T12:47:25;14.80;76.70
45807;DHT22;31507;51.494;7.518;2022-11-15T12:49:51;14.70;76.80
45807;DHT22;31507;51.494;7.518;2022-11-15T12:52:17;14.60;78.00
45807;DHT22;31507;51.494;7.518;2022-11-15T13:00:00;14.80;78.60
45807;DHT22;31507;51.494;7.518;2022-11-15T13:02:35;14.90;78.50
45807;DHT22;31507;51.494;7.518;2022-11-15T13:17:49;14.60;81.20
45807;DHT22;31507;51.494;7.518;2022-11-15T13:20:20;14.50;81.40
45807;DHT22;31507;51.494;7.518;2022-11-15T13:22:50;14.50;82.30
45807;DHT22;31507;51.494;7.518;2022-11-15T13:33:19;14.50;83.10
45807;DHT22;31507;51.494;7.518;2022-11-15T13:35:57;14.50;83.30
45807;DHT22;31507;51.494;7.518;2022-11-15T13:38:32;14.50;83.70
45807;DHT22;31507;51.494;7.518;2022-11-15T13:40:59;14.30;84.00
45807;DHT22;31507;51.494;7.518;2022-11-15T13:43:27;14.20;84.30
45807;DHT22;31507;51.494;7.518;2022-11-15T13:46:15;14.10;84.50
45807;DHT22;31507;51.494;7.518;2022-11-15T13:48:43;14.10;84.80
45807;DHT22;31507;51.494;7.518;2022-11-15T13:51:37;14.10;85.10
45807;DHT22;31507;51.494;7.518;2022-11-15T13:54:07;14.10;85.20
45807;DHT22;31507;51.494;7.518;2022-11-15T13:56:34;14.00;85.40
45807;DHT22;31507;51.494;7.518;2022-11-15T13:59:09;14.00;85.60
45807;DHT22;31507;51.494;7.518;2022-11-15T14:01:34;13.90;85.70
45807;DHT22;31507;51.494;7.518;2022-11-15T14:04:01;13.80;86.20
45807;DHT22;31507;51.494;7.518;2022-11-15T14:06:29;13.70;86.70
45807;DHT22;31507;51.494;7.518;2022-11-15T14:11:30;13.50;88.10
45807;DHT22;31507;51.494;7.518;2022-11-15T14:14:15;13.50;88.20
45807;DHT22;31507;51.494;7.518;2022-11-15T14:16:43;13.40;89.50
45807;DHT22;31507;51.494;7.518;2022-11-15T14:22:19;13.30;90.10
45807;DHT22;31507;51.494;7.518;2022-11-15T14:27:41;13.30;90.40
45807;DHT22;31507;51.494;7.518;2022-11-15T14:30:13;13.30;90.30
45807;DHT22;31507;51.494;7.518;2022-11-15T14:32:44;13.30;90.40
45807;DHT22;31507;51.494;7.518;2022-11-15T14:35:15;13.30;90.50
45807;DHT22;31507;51.494;7.518;2022-11-15T14:37:41;13.30;90.50
45807;DHT22;31507;51.494;7.518;2022-11-15T14:40:08;13.40;90.60
45807;DHT22;31507;51.494;7.518;2022-11-15T14:42:37;13.40;90.60
45807;DHT22;31507;51.494;7.518;2022-11-15T14:45:04;13.40;90.60
45807;DHT22;31507;51.494;7.518;2022-11-15T14:47:34;13.40;90.70
45807;DHT22;31507;51.494;7.518;2022-11-15T14:50:00;13.40;90.80
45807;DHT22;31507;51.494;7.518;2022-11-15T14:52:29;13.40;90.90
45807;DHT22;31507;51.494;7.518;2022-11-15T14:54:56;13.40;90.90
45807;DHT22;31507;51.494;7.518;2022-11-15T14:57:23;13.40;90.90
45807;DHT22;31507;51.494;7.518;2022-11-15T14:59:49;13.40;91.00
45807;DHT22;31507;51.494;7.518;2022-11-15T15:02:20;13.40;91.00
45807;DHT22;31507;51.494;7.518;2022-11-15T15:04:46;13.30;91.20
45807;DHT22;31507;51.494;7.518;2022-11-15T15:07:13;13.30;91.30
45807;DHT22;31507;51.494;7.518;2022-11-15T15:09:39;13.20;91.30
45807;DHT22;31507;51.494;7.518;2022-11-15T15:12:11;13.20;91.50
45807;DHT22;31507;51.494;7.518;2022-11-15T15:14:38;13.10;91.50
45807;DHT22;31507;51.494;7.518;2022-11-15T15:17:04;13.10;91.60
45807;DHT22;31507;51.494;7.518;2022-11-15T15:19:30;13.10;91.60
45807;DHT22;31507;51.494;7.518;2022-11-15T15:21:55;13.10;91.70
45807;DHT22;31507;51.494;7.518;2022-11-15T15:24:21;13.00;91.90
45807;DHT22;31507;51.494;7.518;2022-11-15T15:26:46;13.10;92.00
45807;DHT22;31507;51.494;7.518;2022-11-15T15:29:12;13.10;92.00
45807;DHT22;31507;51.494;7.518;2022-11-15T15:31:38;13.10;92.20
45807;DHT22;31507;51.494;7.518;2022-11-15T15:34:04;13.10;92.40
45807;DHT22;31507;51.494;7.518;2022-11-15T15:36:29;13.00;92.40
45807;DHT22;31507;51.494;7.518;2022-11-15T15:38:55;13.10;92.60
45807;DHT22;31507;51.494;7.518;2022-11-15T15:41:20;13.10;92.70
45807;DHT22;31507;51.494;7.518;2022-11-15T15:43:46;13.10;92.90
45807;DHT22;31507;51.494;7.518;2022-11-15T15:46:17;13.10;92.90
45807;DHT22;31507;51.494;7.518;2022-11-15T15:48:43;13.10;93.10
45807;DHT22;31507;51.494;7.518;2022-11-15T15:51:09;13.00;93.10
45807;DHT22;31507;51.494;7.518;2022-11-15T15:53:35;13.00;93.30
45807;DHT22;31507;51.494;7.518;2022-11-15T15:56:01;13.00;93.40
45807;DHT22;31507;51.494;7.518;2022-11-15T15:58:27;13.00;93.60
45807;DHT22;31507;51.494;7.518;2022-11-15T16:00:53;12.90;93.70
45807;DHT22;31507;51.494;7.518;2022-11-15T16:03:18;12.90;93.90
45807;DHT22;31507;51.494;7.518;2022-11-15T16:05:46;12.90;94.10
45807;DHT22;31507;51.494;7.518;2022-11-15T16:08:19;12.90;94.40
45807;DHT22;31507;51.494;7.518;2022-11-15T16:10:46;12.90;94.40
45807;DHT22;31507;51.494;7.518;2022-11-15T16:13:12;12.90;94.40
45807;DHT22;31507;51.494;7.518;2022-11-15T16:15:37;12.90;94.40
45807;DHT22;31507;51.494;7.518;2022-11-15T16:18:04;12.90;94.50
45807;DHT22;31507;51.494;7.518;2022-11-15T16:23:04;13.00;94.60
45807;DHT22;31507;51.494;7.518;2022-11-15T16:25:34;13.00;94.60
45807;DHT22;31507;51.494;7.518;2022-11-15T16:28:00;13.00;94.60
45807;DHT22;31507;51.494;7.518;2022-11-15T16:30:25;13.00;94.70
45807;DHT22;31507;51.494;7.518;2022-11-15T16:32:51;13.00;94.70
45807;DHT22;31507;51.494;7.518;2022-11-15T16:35:19;13.00;94.80
45807;DHT22;31507;51.494;7.518;2022-11-15T16:37:45;13.00;94.80
45807;DHT22;31507;51.494;7.518;2022-11-15T16:40:24;13.00;94.80
45807;DHT22;31507;51.494;7.518;2022-11-15T16:42:50;13.00;95.10
45807;DHT22;31507;51.494;7.518;2022-11-15T16:45:15;13.00;95.10
45807;DHT22;31507;51.494;7.518;2022-11-15T16:47:42;12.90;95.10
45807;DHT22;31507;51.494;7.518;2022-11-15T16:50:21;13.00;95.20
45807;DHT22;31507;51.494;7.518;2022-11-15T16:52:57;13.00;95.30
45807;DHT22;31507;51.494;7.518;2022-11-15T16:55:26;13.00;95.30
45807;DHT22;31507;51.494;7.518;2022-11-15T16:57:53;13.00;95.40
45807;DHT22;31507;51.494;7.518;2022-11-15T17:00:20;13.00;95.40
45807;DHT22;31507;51.494;7.518;2022-11-15T17:02:48;12.90;95.40
45807;DHT22;31507;51.494;7.518;2022-11-15T17:05:16;13.00;95.60
45807;DHT22;31507;51.494;7.518;2022-11-15T17:07:42;13.00;95.70
45807;DHT22;31507;51.494;7.518;2022-11-15T17:10:10;13.00;95.60
45807;DHT22;31507;51.494;7.518;2022-11-15T17:12:36;13.00;95.60
45807;DHT22;31507;51.494;7.518;2022-11-15T17:15:03;13.00;95.60
45807;DHT22;31507;51.494;7.518;2022-11-15T17:17:29;13.00;95.60
45807;DHT22;31507;51.494;7.518;2022-11-15T17:19:55;13.00;95.70
45807;DHT22;31507;51.494;7.518;2022-11-15T17:22:21;13.00;95.80
45807;DHT22;31507;51.494;7.518;2022-11-15T17:24:47;13.00;95.80
45807;DHT22;31507;51.494;7.518;2022-11-15T17:27:13;13.10;95.80
45807;DHT22;31507;51.494;7.518;2022-11-15T17:29:40;13.10;95.80
45807;DHT22;31507;51.494;7.518;2022-11-15T17:32:06;13.10;95.90
45807;DHT22;31507;51.494;7.518;2022-11-15T17:34:32;13.00;95.90
45807;DHT22;31507;51.494;7.518;2022-11-15T17:36:57;13.00;95.90
45807;DHT22;31507;51.494;7.518;2022-11-15T17:39:23;13.00;96.00
45807;DHT22;31507;51.494;7.518;2022-11-15T17:41:49;13.00;96.10
45807;DHT22;31507;51.494;7.518;2022-11-15T17:44:15;13.00;96.20
45807;DHT22;31507;51.494;7.518;2022-11-15T17:46:41;13.00;96.20
45807;DHT22;31507;51.494;7.518;2022-11-15T17:49:07;13.00;96.20
45807;DHT22;31507;51.494;7.518;2022-11-15T17:51:33;13.00;96.20